Time;durP1;ratioP1;P1;durP2;ratioP2;P2;SDS_P1;SDS_P2;PMS_P1;PMS_P2;Temp;Humidity;BMP_temperature;BMP_pressure;BME280_temperature;BME280_humidity;BME280_pressure;Samples;Min_cycle;Max_cycle;Signal;HPM_P1;HPM_P2
2022/07/10 00:00:13;;;;;;;3.15;1.70;;;13.70;99.90;;;;;;4672189;30;20041;-85
2022/07/10 00:02:43;;;;;;;5.47;1.88;;;13.60;99.90;;;;;;4671856;30;20135;-86
2022/07/10 00:05:10;;;;;;;2.70;1.73;;;13.60;99.90;;;;;;4693162;25;20053;-83
2022/07/10 00:07:36;;;;;;;3.22;1.73;;;13.60;99.90;;;;;;4671806;30;20115;-83
2022/07/10 00:10:06;;;;;;;4.63;1.77;;;13.60;99.90;;;;;;4671558;30;20030;-85
2022/07/10 00:12:32;;;;;;;2.53;1.60;;;13.60;99.90;;;;;;4672073;30;20066;-86
2022/07/10 00:14:58;;;;;;;4.05;1.80;;;10.30;99.90;;;;;;4687389;30;20064;-85
2022/07/10 00:17:23;;;;;;;3.92;1.98;;;13.50;99.90;;;;;;4686816;30;20068;-85
2022/07/10 00:19:49;;;;;;;3.22;1.20;;;13.40;99.90;;;;;;4687482;30;20042;-84
2022/07/10 00:22:15;;;;;;;3.38;1.70;;;13.30;99.90;;;;;;4687551;30;20052;-85
2022/07/10 00:24:41;;;;;;;4.47;2.03;;;13.30;99.90;;;;;;4687333;30;20037;-85
2022/07/10 00:27:07;;;;;;;4.05;1.65;;;;;;;;;;4687194;30;20302;-85
2022/07/10 00:29:32;;;;;;;4.35;1.92;;;13.20;99.90;;;;;;4671371;30;20466;-82
2022/07/10 00:31:58;;;;;;;5.43;1.80;;;13.10;99.90;;;;;;4687569;30;20054;-84
2022/07/10 00:34:27;;;;;;;2.97;1.35;;;13.10;99.90;;;;;;4687258;30;20714;-84
2022/07/10 00:37:01;;;;;;;3.30;1.75;;;13.20;99.90;;;;;;4671438;30;20108;-83
2022/07/10 00:39:26;;;;;;;10.63;2.03;;;13.20;99.90;;;;;;4671339;30;20575;-83
2022/07/10 00:41:52;;;;;;;5.18;2.17;;;13.20;99.90;;;;;;4687044;30;20284;-84
2022/07/10 00:44:18;;;;;;;3.00;1.38;;;13.20;99.90;;;;;;4674463;30;20056;-86
2022/07/10 00:46:44;;;;;;;3.20;1.60;;;13.20;99.90;;;;;;4696625;30;20109;-86
2022/07/10 00:49:09;;;;;;;5.75;1.90;;;13.20;99.90;;;;;;4694983;30;20037;-87
2022/07/10 00:51:37;;;;;;;5.97;2.05;;;13.20;99.90;;;;;;4695916;30;20120;-86
2022/07/10 00:54:04;;;;;;;2.45;1.35;;;13.10;99.90;;;;;;4692556;30;20030;-86
2022/07/10 00:56:30;;;;;;;3.95;1.90;;;13.20;99.90;;;;;;4671870;30;20327;-83
2022/07/10 00:58:57;;;;;;;6.90;2.78;;;13.20;99.90;;;;;;4687162;30;20046;-84
2022/07/10 01:01:23;;;;;;;6.25;2.63;;;13.20;99.90;;;;;;4687417;30;20042;-83
2022/07/10 01:03:50;;;;;;;15.27;5.35;;;13.10;99.90;;;;;;4686857;30;20073;-86
2022/07/10 01:06:16;;;;;;;13.32;5.35;;;15.30;99.90;;;;;;4686760;30;20037;-84
2022/07/10 01:08:44;;;;;;;5.30;2.05;;;13.00;99.90;;;;;;4686402;30;20559;-84
2022/07/10 01:11:10;;;;;;;6.22;2.05;;;12.80;99.90;;;;;;4670889;30;20413;-85
2022/07/10 01:13:37;;;;;;;4.03;1.75;;;12.70;99.90;;;;;;4686581;30;20042;-82
2022/07/10 01:16:03;;;;;;;4.45;1.85;;;12.60;99.90;;;;;;4686478;30;20117;-85
2022/07/10 01:18:29;;;;;;;4.57;2.50;;;12.50;99.90;;;;;;4670583;30;20046;-84
2022/07/10 01:20:56;;;;;;;3.70;2.00;;;12.40;99.90;;;;;;4670548;30;20038;-84
2022/07/10 01:23:22;;;;;;;3.55;2.03;;;12.30;99.90;;;;;;4670805;30;20552;-85
2022/07/10 01:25:49;;;;;;;2.60;1.63;;;12.30;99.90;;;;;;4670430;30;20132;-85
2022/07/10 01:28:17;;;;;;;5.82;1.65;;;12.20;99.90;;;;;;4686255;30;20033;-83
2022/07/10 01:30:43;;;;;;;3.47;1.60;;;12.20;99.90;;;;;;4670670;30;20041;-83
2022/07/10 01:33:09;;;;;;;5.70;1.95;;;12.20;99.90;;;;;;4687047;30;20400;-83
2022/07/10 01:35:35;;;;;;;3.75;1.83;;;12.20;99.90;;;;;;4671308;30;20458;-85
2022/07/10 01:38:01;;;;;;;6.88;2.20;;;12.20;99.90;;;;;;4670395;30;20056;-85
2022/07/10 01:40:27;;;;;;;3.80;2.20;;;12.10;99.90;;;;;;4687468;30;20665;-85
2022/07/10 01:42:53;;;;;;;5.00;1.90;;;12.20;99.90;;;;;;4673196;30;20694;-83
2022/07/10 01:45:36;;;;;;;4.45;2.08;;;12.20;99.90;;;;;;4672956;30;20099;-87
2022/07/10 01:48:14;;;;;;;5.25;1.83;;;12.20;99.90;;;;;;4692551;25;20066;-86
2022/07/10 01:56:35;;;;;;;3.40;1.85;;;12.00;99.90;;;;;;3769966;28;20435;-83
2022/07/10 01:59:03;;;;;;;4.68;2.03;;;12.00;99.90;;;;;;4672494;30;20259;-84
2022/07/10 02:01:29;;;;;;;2.80;1.58;;;12.00;99.90;;;;;;4669007;30;20244;-85
2022/07/10 02:06:39;;;;;;;;;;;12.00;99.90;;;;;;4673142;30;20155;-85
2022/07/10 02:09:09;;;;;;;4.13;1.85;;;11.90;99.90;;;;;;4678048;30;19947;-84
2022/07/10 02:11:36;;;;;;;3.47;1.50;;;12.00;99.90;;;;;;4677719;30;20149;-86
2022/07/10 02:14:05;;;;;;;3.03;1.50;;;11.90;99.90;;;;;;4670034;30;20247;-84
2022/07/10 02:16:31;;;;;;;5.68;1.92;;;11.90;99.90;;;;;;4669557;30;20320;-83
2022/07/10 02:18:56;;;;;;;9.05;2.30;;;11.90;99.90;;;;;;4685387;30;20045;-84
2022/07/10 02:21:35;;;;;;;4.78;2.08;;;11.80;99.90;;;;;;4697276;30;20045;-85
2022/07/10 02:24:01;;;;;;;2.55;1.60;;;11.80;99.90;;;;;;4678531;30;20067;-83
2022/07/10 02:26:26;;;;;;;3.40;1.70;;;11.70;99.90;;;;;;4700121;30;20042;-84
2022/07/10 02:28:56;;;;;;;5.88;1.70;;;11.70;99.90;;;;;;4702424;30;20052;-85
2022/07/10 02:31:22;;;;;;;4.70;1.40;;;11.70;99.90;;;;;;4700370;30;20092;-83
2022/07/10 02:33:55;;;;;;;3.28;1.85;;;11.80;99.90;;;;;;4696153;30;20037;-83
2022/07/10 02:36:31;;;;;;;3.95;1.48;;;11.70;99.90;;;;;;4704710;30;20050;-83
2022/07/10 02:39:04;;;;;;;4.10;1.90;;;11.80;99.90;;;;;;4685140;30;20041;-85
2022/07/10 02:41:35;;;;;;;5.15;1.95;;;11.70;99.90;;;;;;4678967;30;20046;-83
2022/07/10 02:44:31;;;;;;;4.60;2.53;;;11.70;99.90;;;;;;4682786;30;20069;-83
2022/07/10 02:47:08;;;;;;;3.78;2.00;;;14.30;99.90;;;;;;4709516;30;20065;-83
2022/07/10 02:49:35;;;;;;;4.80;2.20;;;11.80;99.90;;;;;;4704597;30;20379;-82
2022/07/10 02:52:07;;;;;;;3.95;1.90;;;11.80;99.90;;;;;;4702417;30;20042;-83
2022/07/10 02:54:44;;;;;;;5.85;2.40;;;11.70;99.90;;;;;;4679174;30;20318;-84
2022/07/10 02:57:13;;;;;;;6.93;2.88;;;11.70;99.90;;;;;;4681996;30;20034;-82
2022/07/10 02:59:45;;;;;;;4.63;1.88;;;11.70;99.90;;;;;;4703403;30;20077;-84
2022/07/10 03:02:24;;;;;;;9.18;2.42;;;11.70;99.90;;;;;;4704455;30;20037;-83
2022/07/10 03:05:00;;;;;;;3.15;1.80;;;11.80;99.90;;;;;;4706294;30;20045;-83
2022/07/10 03:07:26;;;;;;;7.18;1.80;;;11.80;99.90;;;;;;4681285;30;20052;-84
2022/07/10 03:09:52;;;;;;;4.50;2.28;;;11.60;99.90;;;;;;4672645;30;20034;-83
2022/07/10 03:12:19;;;;;;;5.25;2.22;;;11.60;99.90;;;;;;4694489;30;20357;-84
2022/07/10 03:14:46;;;;;;;5.10;2.17;;;11.60;99.90;;;;;;4706548;30;20042;-83
2022/07/10 03:17:18;;;;;;;3.15;1.83;;;11.60;99.90;;;;;;4711011;30;20054;-83
2022/07/10 03:19:50;;;;;;;3.58;2.40;;;11.60;99.90;;;;;;4697690;30;20048;-84
2022/07/10 03:22:24;;;;;;;4.35;2.03;;;12.40;99.90;;;;;;4673374;30;20434;-82
2022/07/10 03:24:52;;;;;;;4.80;1.92;;;11.70;99.90;;;;;;4674384;30;20363;-83
2022/07/10 03:27:24;;;;;;;3.50;1.95;;;11.60;99.90;;;;;;4666757;30;20041;-83
2022/07/10 03:29:52;;;;;;;3.63;1.48;;;11.60;99.90;;;;;;4672962;30;20117;-82
2022/07/10 03:32:25;;;;;;;6.45;2.00;;;11.50;99.90;;;;;;4678420;30;20047;-83
2022/07/10 03:35:08;;;;;;;4.45;1.75;;;11.40;99.90;;;;;;4674629;30;20068;-81
2022/07/10 03:37:43;;;;;;;3.17;1.77;;;11.20;99.90;;;;;;4678943;30;20050;-82
2022/07/10 03:40:12;;;;;;;3.85;1.58;;;11.10;99.90;;;;;;4675291;30;20058;-81
2022/07/10 03:42:47;;;;;;;4.65;1.63;;;11.10;99.90;;;;;;4680560;30;20042;-82
2022/07/10 03:48:05;;;;;;;4.43;1.55;;;11.20;99.90;;;;;;4659955;30;20047;-82
2022/07/10 03:58:29;;;;;;;5.88;1.95;;;11.20;99.90;;;;;;1195661;28;20148;-82
2022/07/10 04:00:54;;;;;;;3.63;2.05;;;11.20;99.90;;;;;;4722169;25;20129;-82
2022/07/10 04:03:25;;;;;;;3.05;1.40;;;11.10;99.90;;;;;;4709025;30;20037;-82
2022/07/10 04:09:06;;;;;;;4.47;2.03;;;;;;;;;;4704832;30;20096;-81
2022/07/10 04:11:37;;;;;;;2.97;1.45;;;11.20;99.90;;;;;;4704846;30;20628;-82
2022/07/10 04:14:04;;;;;;;4.63;1.80;;;11.50;99.90;;;;;;4704410;30;20139;-82
2022/07/10 04:16:31;;;;;;;13.18;6.53;;;11.30;99.90;;;;;;4702165;30;20413;-82
2022/07/10 04:19:04;;;;;;;14.90;6.78;;;11.40;99.90;;;;;;4703619;30;20120;-82
2022/07/10 04:21:31;;;;;;;22.65;9.32;;;11.30;99.90;;;;;;4707773;30;20335;-83
2022/07/10 04:23:57;;;;;;;25.17;8.75;;;11.30;99.90;;;;;;4703698;30;20046;-82
2022/07/10 04:26:23;;;;;;;18.17;6.78;;;11.30;99.90;;;;;;4705762;30;20041;-82
2022/07/10 04:29:57;;;;;;;14.35;4.93;;;11.50;99.90;;;;;;4699925;30;20022;-82
2022/07/10 04:32:33;;;;;;;8.30;4.03;;;11.70;99.90;;;;;;4625954;31;20040;-82
2022/07/10 04:35:03;;;;;;;4.07;1.75;;;11.60;99.90;;;;;;4602732;31;20036;-85
2022/07/10 04:37:48;;;;;;;3.63;1.83;;;11.70;99.90;;;;;;4605001;31;20044;-82
2022/07/10 04:40:14;;;;;;;2.58;1.30;;;13.00;99.90;;;;;;4594445;31;20040;-85
2022/07/10 04:42:42;;;;;;;5.07;1.80;;;11.50;99.90;;;;;;4604843;31;20547;-82
2022/07/10 04:45:14;;;;;;;4.70;1.80;;;11.60;99.90;;;;;;4702655;25;20660;-84
2022/07/10 04:47:39;;;;;;;3.15;1.27;;;11.70;99.90;;;;;;4709647;30;20251;-84
2022/07/10 04:50:06;;;;;;;5.50;1.92;;;11.80;99.90;;;;;;4706077;30;20216;-82
2022/07/10 04:52:31;;;;;;;5.40;2.35;;;11.90;99.90;;;;;;4705097;30;20448;-85
2022/07/10 04:54:57;;;;;;;4.75;1.85;;;12.00;99.90;;;;;;4704463;30;20052;-84
2022/07/10 04:57:23;;;;;;;3.30;1.60;;;12.10;99.90;;;;;;4704445;30;20119;-84
2022/07/10 04:59:53;;;;;;;3.42;2.25;;;12.10;99.90;;;;;;4703026;30;20044;-85
2022/07/10 05:02:19;;;;;;;3.35;1.83;;;14.10;99.90;;;;;;4704740;30;20246;-83
2022/07/10 05:04:44;;;;;;;3.75;1.65;;;12.40;99.90;;;;;;4704643;30;20043;-84
2022/07/10 05:07:10;;;;;;;2.60;1.33;;;12.50;99.90;;;;;;4704336;30;20454;-85
2022/07/10 05:09:36;;;;;;;5.00;2.15;;;12.60;99.90;;;;;;4704357;30;20116;-85
2022/07/10 05:12:02;;;;;;;5.35;2.35;;;12.70;99.90;;;;;;4688555;30;20340;-86
2022/07/10 05:14:28;;;;;;;4.00;1.83;;;12.70;99.90;;;;;;4718622;30;20107;-83
2022/07/10 05:16:54;;;;;;;4.63;2.20;;;12.80;99.90;;;;;;4722746;30;20033;-87
2022/07/10 05:19:19;;;;;;;4.75;2.22;;;12.90;99.90;;;;;;4704779;30;20348;-86
2022/07/10 05:21:45;;;;;;;4.20;1.92;;;13.10;99.90;;;;;;4704130;30;20041;-89
2022/07/10 05:24:11;;;;;;;8.20;2.42;;;13.20;99.90;;;;;;4704113;30;20037;-88
2022/07/10 05:26:37;;;;;;;5.55;2.28;;;13.30;99.90;;;;;;4704865;30;20120;-86
2022/07/10 05:29:03;;;;;;;5.03;1.98;;;13.40;99.90;;;;;;4704414;30;20559;-88
2022/07/10 05:31:28;;;;;;;3.65;1.70;;;13.50;99.90;;;;;;4704223;30;20258;-87
2022/07/10 05:33:54;;;;;;;4.78;1.92;;;13.60;99.90;;;;;;4688353;30;20075;-88
2022/07/10 05:36:20;;;;;;;3.50;1.85;;;13.70;99.90;;;;;;4703375;30;20116;-87
2022/07/10 05:38:46;;;;;;;4.53;2.17;;;12.80;99.90;;;;;;4703757;30;20289;-88
2022/07/10 05:41:14;;;;;;;5.82;1.92;;;13.80;99.90;;;;;;4704173;30;20107;-87
2022/07/10 05:43:41;;;;;;;4.10;1.95;;;13.80;99.90;;;;;;4691751;25;20491;-88
2022/07/10 05:46:07;;;;;;;4.50;1.85;;;13.80;99.90;;;;;;4672631;30;20140;-85
2022/07/10 05:48:33;;;;;;;4.70;2.30;;;14.00;99.90;;;;;;4672029;30;20077;-84
2022/07/10 05:50:58;;;;;;;5.88;1.80;;;14.10;99.90;;;;;;4671844;30;20034;-85
2022/07/10 05:53:24;;;;;;;4.60;2.40;;;14.30;99.90;;;;;;4687237;30;20485;-84
2022/07/10 05:55:50;;;;;;;6.38;2.80;;;14.40;99.90;;;;;;4686846;30;20414;-85
2022/07/10 05:58:31;;;;;;;4.43;2.03;;;14.50;99.90;;;;;;4669953;30;20053;-86
2022/07/10 06:00:57;;;;;;;3.67;1.75;;;14.70;99.90;;;;;;4669932;30;20407;-86
2022/07/10 06:03:26;;;;;;;4.78;1.60;;;14.90;99.90;;;;;;4685565;30;20407;-87
2022/07/10 06:08:32;;;;;;;7.00;2.53;;;15.10;99.90;;;;;;4690069;25;20068;-87
2022/07/10 06:10:57;;;;;;;3.58;1.98;;;15.10;99.90;;;;;;4703817;25;20065;-85
2022/07/10 06:13:42;;;;;;;4.10;2.15;;;15.50;99.90;;;;;;4687853;30;20451;-85
2022/07/10 06:16:25;;;;;;;5.82;2.13;;;15.40;99.90;;;;;;4780602;25;20064;-84
2022/07/10 06:25:06;;;;;;;5.05;2.10;;;15.60;99.90;;;;;;4838795;25;20072;-86
2022/07/10 06:27:32;;;;;;;5.40;2.33;;;15.50;99.90;;;;;;4669956;30;20041;-83
2022/07/10 06:33:04;;;;;;;4.15;1.85;;;15.90;99.90;;;;;;4753919;25;20135;-84
2022/07/10 06:35:39;;;;;;;6.10;3.00;;;17.20;99.90;;;;;;4683727;30;20565;-85
2022/07/10 06:38:34;;;;;;;4.65;1.67;;;16.60;99.90;;;;;;4686363;30;20071;-83
2022/07/10 06:41:41;;;;;;;6.15;2.70;;;17.50;99.90;;;;;;4686812;30;20052;-84
2022/07/10 06:44:07;;;;;;;6.38;2.35;;;16.90;99.60;;;;;;4686455;30;20041;-83
2022/07/10 06:46:33;;;;;;;7.55;2.70;;;17.10;99.90;;;;;;4701680;30;20198;-83
2022/07/10 06:48:59;;;;;;;4.38;2.45;;;17.30;98.90;;;;;;4702275;30;20146;-85
2022/07/10 06:51:25;;;;;;;5.40;2.65;;;17.30;98.50;;;;;;4702217;30;20219;-83
2022/07/10 06:53:52;;;;;;;6.63;3.05;;;17.30;98.50;;;;;;4686298;30;20072;-86
2022/07/10 06:56:18;;;;;;;8.10;2.80;;;17.30;98.40;;;;;;4685978;30;20351;-81
2022/07/10 06:58:44;;;;;;;6.30;2.47;;;17.40;98.20;;;;;;4700687;30;20598;-83
2022/07/10 07:01:14;;;;;;;5.57;3.00;;;17.80;98.50;;;;;;4681650;30;20046;-86
2022/07/10 07:03:40;;;;;;;6.05;2.63;;;17.30;98.40;;;;;;4667668;30;20038;-84
2022/07/10 07:06:21;;;;;;;8.57;3.25;;;17.40;98.70;;;;;;4689771;25;20068;-84
2022/07/10 07:08:47;;;;;;;5.90;2.78;;;17.60;99.10;;;;;;4668579;30;20088;-85
2022/07/10 07:11:24;;;;;;;9.40;2.75;;;17.60;98.90;;;;;;4186927;25;15081342;-84
2022/07/10 07:13:50;;;;;;;4.90;2.58;;;17.60;99.10;;;;;;4684875;30;20041;-85
2022/07/10 07:16:37;;;;;;;5.20;2.45;;;17.80;98.50;;;;;;4671919;30;20485;-86
2022/07/10 07:19:17;;;;;;;4.30;2.33;;;18.00;99.20;;;;;;4669296;30;20243;-86
2022/07/10 07:24:38;;;;;;;6.20;3.05;;;17.90;98.40;;;;;;4691179;25;20148;-87
2022/07/10 07:30:10;;;;;;;10.45;2.83;;;18.10;98.90;;;;;;4681514;25;20399;-84
2022/07/10 07:32:37;;;;;;;6.03;3.10;;;18.00;98.40;;;;;;4668731;30;20034;-83
2022/07/10 07:35:04;;;;;;;6.05;2.53;;;18.10;98.10;;;;;;4669037;30;20046;-84
2022/07/10 07:37:39;;;;;;;5.32;2.67;;;18.10;97.80;;;;;;4684645;30;20108;-83
2022/07/10 07:40:07;;;;;;;7.20;3.10;;;18.20;98.00;;;;;;4684441;30;20049;-85
2022/07/10 07:42:33;;;;;;;7.57;3.10;;;18.40;97.80;;;;;;4669423;30;20653;-83
2022/07/10 07:44:59;;;;;;;8.88;3.45;;;18.50;97.10;;;;;;4684571;30;20247;-82
2022/07/10 07:47:25;;;;;;;6.20;2.78;;;18.50;96.70;;;;;;4685776;30;20243;-85
2022/07/10 07:49:51;;;;;;;5.65;2.55;;;19.60;97.00;;;;;;4685288;30;20677;-82
2022/07/10 07:52:17;;;;;;;6.50;2.78;;;18.50;96.70;;;;;;4699609;30;20276;-82
2022/07/10 07:54:52;;;;;;;6.30;2.33;;;18.50;97.00;;;;;;4684917;30;20314;-82
2022/07/10 07:57:18;;;;;;;12.63;3.83;;;18.90;98.00;;;;;;4668476;30;20208;-84
2022/07/10 07:59:47;;;;;;;6.72;3.20;;;18.90;96.80;;;;;;4669941;30;20401;-81
2022/07/10 08:02:15;;;;;;;5.38;2.47;;;19.10;96.40;;;;;;4687705;30;20041;-83
2022/07/10 08:04:41;;;;;;;6.28;2.55;;;19.10;96.30;;;;;;4687612;30;20469;-83
2022/07/10 08:07:07;;;;;;;6.43;2.38;;;19.20;96.20;;;;;;4687288;30;20371;-84
2022/07/10 08:09:33;;;;;;;6.47;2.65;;;19.50;95.60;;;;;;4687435;30;20540;-83
2022/07/10 08:11:59;;;;;;;4.35;2.22;;;19.70;95.30;;;;;;4687275;30;20277;-84
2022/07/10 08:14:31;;;;;;;5.30;2.53;;;19.90;94.60;;;;;;4687456;30;20101;-84
2022/07/10 08:16:56;;;;;;;7.57;2.40;;;20.00;94.60;;;;;;4686924;30;20158;-84
2022/07/10 08:20:00;;;;;;;6.15;2.55;;;20.20;94.00;;;;;;4671473;30;20120;-82
2022/07/10 08:22:29;;;;;;;5.40;2.33;;;20.20;94.20;;;;;;4687402;30;20065;-82
2022/07/10 08:24:56;;;;;;;8.93;2.70;;;20.20;93.90;;;;;;4671015;30;20076;-85
2022/07/10 08:27:31;;;;;;;4.80;2.53;;;20.30;93.70;;;;;;4687001;30;20092;-87
2022/07/10 08:29:57;;;;;;;5.50;2.60;;;20.60;93.70;;;;;;4686770;30;20691;-86
2022/07/10 08:32:23;;;;;;;7.65;2.88;;;20.70;93.50;;;;;;4671111;30;20465;-85
2022/07/10 08:34:51;;;;;;;5.75;2.90;;;20.90;93.10;;;;;;4686911;30;20100;-83
2022/07/10 08:37:19;;;;;;;4.55;2.40;;;20.60;92.40;;;;;;4693724;25;20068;-84
2022/07/10 08:39:45;;;;;;;5.47;2.40;;;20.70;92.80;;;;;;4653577;30;20237;-83
2022/07/10 08:42:12;;;;;;;5.65;2.30;;;20.60;92.80;;;;;;4654049;30;20287;-84
2022/07/10 08:44:38;;;;;;;6.85;2.50;;;20.70;92.70;;;;;;4669736;30;20434;-81
2022/07/10 08:47:04;;;;;;;3.72;1.77;;;20.70;93.10;;;;;;4683837;25;20148;-84
2022/07/10 08:49:31;;;;;;;3.70;1.80;;;20.70;91.90;;;;;;4671207;30;20054;-82
2022/07/10 08:52:01;;;;;;;4.55;2.30;;;20.70;92.10;;;;;;4670660;30;20037;-82
2022/07/10 08:54:34;;;;;;;5.22;2.35;;;20.70;92.70;;;;;;4686755;30;20046;-84
2022/07/10 08:57:03;;;;;;;4.53;2.30;;;20.90;92.40;;;;;;4686581;30;20132;-86
2022/07/10 08:59:32;;;;;;;6.15;2.38;;;21.20;92.20;;;;;;4686829;30;20121;-85
2022/07/10 09:01:58;;;;;;;3.67;1.75;;;21.30;91.50;;;;;;4686782;30;20255;-84
2022/07/10 09:04:25;;;;;;;3.53;2.00;;;21.70;90.40;;;;;;4671055;30;20117;-84
2022/07/10 09:06:52;;;;;;;4.60;2.17;;;21.80;90.80;;;;;;4687017;30;20263;-82
2022/07/10 09:09:19;;;;;;;4.38;1.83;;;21.90;90.50;;;;;;4686202;30;20040;-82
2022/07/10 09:11:46;;;;;;;4.10;1.98;;;21.90;90.20;;;;;;4670098;30;20391;-81
2022/07/10 09:14:14;;;;;;;4.30;1.85;;;21.60;90.20;;;;;;4686265;30;20036;-84
2022/07/10 09:16:45;;;;;;;5.47;2.55;;;21.30;90.70;;;;;;4670323;30;20088;-82
2022/07/10 09:20:13;;;;;;;2.90;1.73;;;21.50;90.90;;;;;;4686006;30;20034;-83
2022/07/10 09:22:16;;;;;;;2.97;1.40;;;20.00;89.30;;;;;;4676732;30;20092;-85
2022/07/10 09:24:44;;;;;;;2.40;1.52;;;22.00;87.60;;;;;;4686180;30;20197;-83
2022/07/10 09:27:12;;;;;;;3.08;1.52;;;22.10;86.60;;;;;;4686011;30;20525;-82
2022/07/10 09:29:54;;;;;;;2.65;1.20;;;22.40;85.00;;;;;;4686588;30;20034;-82
2022/07/10 09:32:21;;;;;;;5.13;1.57;;;22.50;83.50;;;;;;4686054;30;20049;-81
2022/07/10 09:37:39;;;;;;;4.93;1.83;;;22.80;82.00;;;;;;4685539;30;20056;-83
2022/07/10 09:40:07;;;;;;;4.13;1.83;;;23.00;81.60;;;;;;4685612;30;20033;-81
2022/07/10 09:42:38;;;;;;;3.38;1.40;;;23.40;82.40;;;;;;4685589;30;20471;-82
2022/07/10 09:45:12;;;;;;;3.70;1.60;;;23.20;79.00;;;;;;4685345;30;20088;-84
2022/07/10 09:47:45;;;;;;;2.70;1.60;;;23.20;81.30;;;;;;4685436;30;20053;-82
2022/07/10 09:50:29;;;;;;;4.75;1.83;;;23.20;80.20;;;;;;4691848;25;20058;-81
2022/07/10 09:53:12;;;;;;;2.65;1.48;;;23.30;79.70;;;;;;4669696;30;20110;-82
2022/07/10 09:55:38;;;;;;;3.22;1.48;;;23.30;78.80;;;;;;4670104;30;20556;-82
2022/07/10 09:58:09;;;;;;;3.65;1.60;;;23.50;78.20;;;;;;4669334;30;20111;-83
2022/07/10 10:00:45;;;;;;;2.55;1.30;;;23.80;77.00;;;;;;4685570;30;20502;-84
2022/07/10 10:03:11;;;;;;;2.90;1.35;;;24.10;76.80;;;;;;4688741;25;20499;-83
2022/07/10 10:06:11;;;;;;;3.33;1.40;;;23.90;74.90;;;;;;4702550;30;20553;-85
2022/07/10 10:11:47;;;;;;;3.83;1.50;;;24.10;75.40;;;;;;4691327;25;20569;-84
2022/07/10 10:14:14;;;;;;;2.53;1.50;;;24.20;75.00;;;;;;4685459;30;20046;-82
2022/07/10 10:16:43;;;;;;;3.63;1.20;;;24.30;74.10;;;;;;4686262;30;20034;-82
2022/07/10 10:21:58;;;;;;;2.80;1.35;;;24.70;71.50;;;;;;4684592;30;20048;-82
2022/07/10 10:24:32;;;;;;;3.90;1.67;;;24.70;71.30;;;;;;4669276;30;20038;-82
2022/07/10 10:27:01;;;;;;;2.47;1.40;;;24.90;71.50;;;;;;4685486;30;20131;-83
2022/07/10 10:29:28;;;;;;;3.45;1.55;;;24.40;71.80;;;;;;4669956;30;20037;-83
2022/07/10 10:31:54;;;;;;;4.55;1.63;;;24.70;71.90;;;;;;4685214;30;20474;-82
2022/07/10 10:34:39;;;;;;;2.95;1.48;;;24.80;71.10;;;;;;4670158;30;20053;-82
2022/07/10 10:37:07;;;;;;;2.58;1.13;;;24.80;68.20;;;;;;4685894;30;20236;-83
2022/07/10 10:40:18;;;;;;;1.30;0.85;;;24.80;66.30;;;;;;4670878;30;20088;-84
2022/07/10 10:42:44;;;;;;;2.40;0.90;;;25.30;64.80;;;;;;4684048;30;20057;-83
2022/07/10 10:49:03;;;;;;;3.25;1.02;;;24.40;64.50;;;;;;4685094;30;20120;-84
2022/07/10 10:51:55;;;;;;;2.67;0.85;;;24.50;65.20;;;;;;4669181;30;20080;-82
2022/07/10 10:54:21;;;;;;;1.20;0.60;;;;;;;;;;4684602;30;20033;-82
2022/07/10 10:57:14;;;;;;;0.90;0.80;;;24.80;61.60;;;;;;4673875;25;20107;-83
2022/07/10 10:59:50;;;;;;;1.73;0.80;;;25.20;60.70;;;;;;4669466;30;20081;-83
2022/07/10 11:03:00;;;;;;;2.45;0.90;;;25.30;59.50;;;;;;4684763;30;20687;-82
2022/07/10 11:05:32;;;;;;;3.05;0.90;;;25.20;58.90;;;;;;4668805;30;20422;-84
2022/07/10 11:08:01;;;;;;;1.88;0.73;;;25.00;59.30;;;;;;4684522;30;20800;-83
2022/07/10 11:10:31;;;;;;;0.77;0.50;;;25.00;58.10;;;;;;4684394;30;20048;-83
2022/07/10 11:13:03;;;;;;;3.03;0.98;;;25.00;58.10;;;;;;4684351;30;20045;-83
2022/07/10 11:15:32;;;;;;;2.57;0.77;;;25.20;58.00;;;;;;4684541;30;20038;-81
2022/07/10 11:17:59;;;;;;;1.67;0.73;;;24.60;55.40;;;;;;4684340;30;20052;-82
2022/07/10 11:20:25;;;;;;;0.77;0.60;;;25.00;57.20;;;;;;4684554;30;20061;-83
2022/07/10 11:23:13;;;;;;;1.65;0.82;;;25.00;56.20;;;;;;4684232;30;20483;-84
2022/07/10 11:25:50;;;;;;;0.85;0.60;;;24.70;54.70;;;;;;4685505;30;20049;-81
2022/07/10 11:28:24;;;;;;;1.27;0.73;;;22.10;52.70;;;;;;4668836;30;20122;-84
2022/07/10 11:30:52;;;;;;;0.73;0.60;;;24.80;53.40;;;;;;4668204;30;20073;-83
2022/07/10 11:33:26;;;;;;;2.08;0.80;;;24.80;53.90;;;;;;4669639;30;20473;-85
2022/07/10 11:35:53;;;;;;;2.90;1.00;;;25.10;54.60;;;;;;4687611;30;20038;-84
2022/07/10 11:38:23;;;;;;;1.08;0.70;;;25.00;54.20;;;;;;4687818;30;20202;-85
2022/07/10 11:40:52;;;;;;;1.80;0.80;;;24.90;54.20;;;;;;4687634;30;20057;-84
2022/07/10 11:43:22;;;;;;;2.00;0.75;;;;;;;;;;4687625;30;20054;-83
2022/07/10 11:45:48;;;;;;;1.77;0.80;;;24.40;54.20;;;;;;4687425;30;20099;-83
2022/07/10 11:48:18;;;;;;;1.85;1.10;;;24.10;55.00;;;;;;4671612;30;20045;-83
2022/07/10 11:50:44;;;;;;;2.28;0.85;;;24.00;55.20;;;;;;4687663;30;20153;-81
2022/07/10 11:53:10;;;;;;;1.55;0.70;;;24.10;55.90;;;;;;4693562;25;20246;-83
2022/07/10 11:55:40;;;;;;;1.45;0.80;;;24.40;55.50;;;;;;4687361;30;20120;-82
2022/07/10 11:58:19;;;;;;;2.45;0.70;;;25.10;55.00;;;;;;4671881;30;20045;-82
2022/07/10 12:01:06;;;;;;;1.75;0.80;;;26.10;55.00;;;;;;4687504;30;20474;-82
2022/07/10 12:03:56;;;;;;;2.72;0.90;;;27.20;54.30;;;;;;4687573;30;20040;-82
2022/07/10 12:06:25;;;;;;;1.52;0.80;;;28.60;52.10;;;;;;4633200;30;20328;-85
2022/07/10 12:08:51;;;;;;;1.70;0.73;;;29.30;50.40;;;;;;4632773;30;20118;-83
2022/07/10 12:11:26;;;;;;;2.15;1.30;;;29.70;49.30;;;;;;4633086;30;20030;-82
2022/07/10 12:13:54;;;;;;;1.23;0.73;;;28.40;45.20;;;;;;4633065;30;20206;-82
2022/07/10 12:16:21;;;;;;;1.17;0.80;;;30.90;46.70;;;;;;4619221;30;20110;-83
2022/07/10 12:18:48;;;;;;;3.15;1.02;;;31.30;45.20;;;;;;4632734;30;20269;-81
2022/07/10 12:21:17;;;;;;;1.33;0.90;;;31.20;44.50;;;;;;4632857;30;20078;-84
2022/07/10 12:23:47;;;;;;;1.85;0.93;;;30.90;45.10;;;;;;4632702;30;20062;-84
2022/07/10 12:26:13;;;;;;;2.95;1.60;;;30.50;46.00;;;;;;4695767;25;20136;-84
2022/07/10 12:29:14;;;;;;;2.05;1.02;;;30.40;45.60;;;;;;4704199;30;20318;-85
2022/07/10 12:31:42;;;;;;;0.95;0.75;;;30.40;44.90;;;;;;4703872;30;20350;-84
2022/07/10 12:34:08;;;;;;;2.15;1.00;;;30.10;45.90;;;;;;4704015;30;20453;-84
2022/07/10 12:36:51;;;;;;;1.80;0.82;;;29.90;45.50;;;;;;4688248;30;20678;-84
2022/07/10 12:39:18;;;;;;;1.73;1.00;;;29.40;46.50;;;;;;4704014;30;20070;-83
2022/07/10 12:41:58;;;;;;;2.00;0.90;;;28.80;46.20;;;;;;4703959;30;20040;-84
2022/07/10 12:44:33;;;;;;;9.10;5.82;;;28.00;47.80;;;;;;4702417;30;20124;-85
2022/07/10 12:47:11;;;;;;;11.27;8.38;;;27.10;49.60;;;;;;4687885;30;20356;-82
2022/07/10 12:50:02;;;;;;;15.40;11.25;;;26.60;50.20;;;;;;4702678;30;20465;-84
2022/07/10 12:52:36;;;;;;;11.77;7.82;;;28.00;52.70;;;;;;4688329;30;20133;-83
2022/07/10 12:55:22;;;;;;;9.32;4.22;;;27.50;50.60;;;;;;4702308;30;20037;-82
2022/07/10 12:57:57;;;;;;;3.53;1.00;;;28.50;49.80;;;;;;4702562;30;20517;-84
2022/07/10 13:00:30;;;;;;;17.30;11.63;;;29.80;46.50;;;;;;4703822;30;20365;-84
2022/07/10 13:03:01;;;;;;;5.03;1.80;;;30.70;46.80;;;;;;4703691;30;20057;-86
2022/07/10 13:05:39;;;;;;;17.05;10.00;;;29.80;46.00;;;;;;4703568;30;20483;-86
2022/07/10 13:08:06;;;;;;;14.52;10.10;;;29.70;45.80;;;;;;4703698;30;20087;-81
2022/07/10 13:10:33;;;;;;;9.95;5.50;;;29.30;47.10;;;;;;4703926;30;20037;-83
2022/07/10 13:13:06;;;;;;;8.05;5.68;;;29.00;46.30;;;;;;4712723;30;20243;-84
2022/07/10 13:15:34;;;;;;;16.20;7.72;;;29.30;47.30;;;;;;4703932;30;20037;-83
2022/07/10 13:18:00;;;;;;;5.00;1.40;;;30.00;45.60;;;;;;4703462;30;20124;-85
2022/07/10 13:20:26;;;;;;;4.90;1.65;;;30.60;45.00;;;;;;4703768;30;20124;-83
2022/07/10 13:22:51;;;;;;;1.10;0.80;;;30.70;45.00;;;;;;4703122;30;20047;-80
2022/07/10 13:25:17;;;;;;;1.30;0.90;;;30.30;44.20;;;;;;4703243;30;20084;-84
2022/07/10 13:27:44;;;;;;;3.58;1.30;;;29.90;45.10;;;;;;4703390;30;20470;-82
2022/07/10 13:30:10;;;;;;;2.60;0.82;;;29.20;46.20;;;;;;4687971;30;20673;-82
2022/07/10 13:32:36;;;;;;;7.85;2.15;;;29.00;46.30;;;;;;4687675;30;20250;-83
2022/07/10 13:35:01;;;;;;;6.85;1.70;;;28.50;47.90;;;;;;4703819;30;20287;-83
2022/07/10 13:37:27;;;;;;;6.40;2.10;;;28.40;49.10;;;;;;4703700;30;20033;-81
2022/07/10 13:39:54;;;;;;;3.70;1.20;;;28.80;48.70;;;;;;4703590;30;20207;-82
2022/07/10 13:42:20;;;;;;;2.33;0.80;;;28.90;47.80;;;;;;4703611;30;20451;-82
2022/07/10 13:44:49;;;;;;;2.30;0.90;;;29.50;47.10;;;;;;4703532;30;20041;-83
2022/07/10 13:47:15;;;;;;;1.17;0.85;;;30.10;47.00;;;;;;4703267;30;20048;-81
2022/07/10 13:49:41;;;;;;;2.50;0.88;;;29.80;45.60;;;;;;4703505;30;20265;-84
2022/07/10 13:52:06;;;;;;;5.25;1.20;;;31.00;45.20;;;;;;4703541;30;20543;-84
2022/07/10 13:54:32;;;;;;;4.20;1.10;;;30.60;45.50;;;;;;4703158;30;20444;-84
2022/07/10 13:56:58;;;;;;;4.47;1.60;;;29.40;46.30;;;;;;4687558;30;20140;-83